• Join FlightAware (Why Join?)
  • Login
  • US Flag 
06:18AM EDT


 

Airport Tracker/Info


-or-


 

Live Flight TrackerFlight Track Log ✈ EJA846 ✈ 28-Apr-2013 ✈ KSUA - KDWH

Flight Track Log - Related Links

Times and Time Zones

All times are in EDT time to prevent confusion due to time zone crossing. See the EJA846 flight status page for this flight to view local times or setup timezone preferences in your user account.

Time Position Orientation Groundspeed Altitude Reporting Facility
EDT Latitude Longitude Course Direction KTS MPH feet Rate Location/Type
01:06PM 27.1486 -80.1294 336° Northwest 208 239 3,500  Level Miami Center
01:07PM 27.0917 -80.1533 200° South 179 206 5,000 720 Climbing Miami Center
01:08PM 27.1131 -80.2239 289° West 167 192 5,000 720 Level Miami Center
01:09PM 27.1847 -80.2797 325° Northwest 222 255 6,500 1,980 Climbing Miami Center
01:10PM 27.2525 -80.3331 325° Northwest 282 325 9,000 2,640 Climbing Miami Center
01:11PM 27.3737 -80.6202 336° Northwest  Level FlightAware Approximate
01:11PM 27.3242 -80.3867 326° Northwest 303 349 11,800  Level Miami Center
01:12PM 27.3897 -80.4378 325° Northwest 308 354 14,300 2,700 Climbing Miami Center
01:13PM 27.4758 -80.5039 326° Northwest 319 367 17,300 2,400 Climbing Miami Center
01:14PM 27.5414 -80.5550 325° Northwest 329 379 19,200 2,100 Climbing Miami Center
01:15PM 27.6211 -80.6186 325° Northwest 329 379 21,500 2,100 Climbing Miami Center
01:16PM 27.6986 -80.6819 324° Northwest 334 384 23,500 1,500 Climbing Miami Center
01:17PM 27.7694 -80.7667 313° West 352 405 24,600 1,020 Climbing Miami Center
01:18PM 27.8403 -80.8558 312° West 371 427 25,600 960 Climbing Miami Center
01:19PM 27.9189 -80.9456 315° West 390 449 26,600 1,020 Climbing Miami Center
01:20PM 27.9936 -81.0400 312° West 390 449 27,700 1,080 Climbing Miami Center
01:21PM 28.0761 -81.1442 312° West 397 457 28,800 960 Climbing Miami Center
01:23PM 28.1964 -81.2958 312° West 402 463 30,300 900 Climbing Jacksonville Center
01:24PM 28.2706 -81.3867 313° West 402 463 31,300 900 Climbing Jacksonville Center
01:25PM 28.3319 -81.4636 312° West 390 449 32,200 900 Climbing Jacksonville Center
01:26PM 28.4058 -81.5569 312° West 384 442 33,200 1,020 Climbing Jacksonville Center
01:27PM 28.4842 -81.6619 310° West 384 442 34,300 1,020 Climbing Jacksonville Center
01:28PM 28.5581 -81.7511 313° West 384 442 35,300 960 Climbing Jacksonville Center
01:29PM 28.6278 -81.8447 310° West 384 442 36,300 900 Climbing Jacksonville Center
01:30PM 28.6869 -81.9411 305° West 384 442 37,100 600 Climbing Jacksonville Center
01:31PM 28.7378 -82.0472 299° West 379 436 37,500 420 Climbing Jacksonville Center
01:32PM 28.7886 -82.1533 299° West 379 436 38,000 240 Climbing Jacksonville Center
01:33PM 28.8392 -82.2622 298° West 384 442 38,000  Level Jacksonville Center
01:34PM 28.8856 -82.3639 298° West 384 442 38,000  Level Jacksonville Center
01:35PM 28.9361 -82.4678 299° West 377 434 38,000  Level Jacksonville Center
01:36PM 28.9844 -82.5722 298° West 377 434 38,000  Level Jacksonville Center
01:37PM 29.0347 -82.6789 298° West 377 434 38,000 420 Level Jacksonville Center
01:38PM 29.0850 -82.7856 298° West 382 440 38,900 1,380 Climbing Jacksonville Center
01:39PM 29.1286 -82.8783 298° West 366 421 40,800 1,380 Climbing Jacksonville Center
01:40PM 29.1725 -82.9733 298° West 347 399 41,700 720 Climbing Jacksonville Center
01:41PM 29.2164 -83.0711 297° West 342 394 42,300 540 Climbing Jacksonville Center
01:42PM 29.2619 -83.1686 298° West 347 399 42,800 300 Climbing Jacksonville Center
01:43PM 29.3078 -83.2664 298° West 347 399 43,000 60 Climbing Jacksonville Center
01:44PM 29.3553 -83.3714 297° West 352 405 43,000  Level Jacksonville Center
01:45PM 29.4050 -83.4742 299° West 363 418 43,000  Level Jacksonville Center
01:46PM 29.4525 -83.5842 296° West 369 425 43,000  Level Jacksonville Center
01:47PM 29.5042 -83.6919 299° West 374 430 43,000  Level Jacksonville Center
01:48PM 29.5556 -83.7997 299° West 379 436 43,000  Level Jacksonville Center
01:49PM 29.6047 -83.9100 297° West 384 442 43,000  Level Jacksonville Center
01:50PM 29.6500 -84.0086 298° West 384 442 43,000  Level Jacksonville Center
01:51PM 29.7011 -84.1192 298° West 384 442 43,000  Level Jacksonville Center
01:52PM 29.7522 -84.2322 298° West 389 448 43,000  Level Jacksonville Center
01:53PM 29.8053 -84.3456 298° West 389 448 43,000  Level Jacksonville Center
01:54PM 29.8561 -84.4589 297° West 389 448 43,000  Level Jacksonville Center
01:55PM 29.9028 -84.5697 296° West 389 448 43,000  Level Jacksonville Center
01:56PM 29.9533 -84.6808 298° West 389 448 43,000  Level Jacksonville Center
01:57PM 30.0081 -84.7947 299° West 389 448 43,000  Level Jacksonville Center
01:58PM 30.0564 -84.9083 296° West 389 448 43,000  Level Jacksonville Center
01:59PM 30.0983 -85.0244 293° West 389 448 43,000  Level Jacksonville Center
02:00PM 30.1233 -85.1453 283° West 389 448 43,000  Level Jacksonville Center
02:01PM 30.1483 -85.2681 283° West 389 448 43,000  Level Jacksonville Center
02:02PM 30.1711 -85.3889 282° West 389 448 43,000  Level Jacksonville Center
02:03PM 30.1914 -85.5167 280° West 400 460 43,000  Level Jacksonville Center
02:04PM 30.2161 -85.6328 284° West 394 453 43,000  Level Jacksonville Center
02:05PM 30.2467 -85.7708 284° West 394 453 43,000  Level Jacksonville Center
02:06PM 30.2561 -85.8936 275° West 394 453 43,000  Level Jacksonville Center
02:07PM 30.2617 -86.0142 273° West 388 447 43,000  Level Jacksonville Center
02:08PM 30.2692 -86.1369 274° West 388 447 43,000  Level Jacksonville Center
02:09PM 30.2764 -86.2597 274° West 388 447 43,000  Level Jacksonville Center
02:10PM 30.2792 -86.3850 272° West 388 447 43,000  Level Jacksonville Center
02:11PM 30.2903 -86.5081 276° West 388 447 43,000  Level Jacksonville Center
02:12PM 30.2972 -86.6286 274° West 388 447 43,000  Level Jacksonville Center
02:13PM 30.3042 -86.7517 274° West 388 447 43,000  Level Jacksonville Center
02:14PM 30.3108 -86.8744 274° West 388 447 43,000  Level Jacksonville Center
02:15PM 30.3136 -86.9828 272° West 388 447 43,000  Level Jacksonville Center
02:16PM 30.2972 -87.1025 261° West 382 440 43,000  Level Jacksonville Center
02:17PM 30.2806 -87.2244 261° West 387 445 43,000  Level Jacksonville Center
02:18PM 30.2617 -87.3486 260° West 387 445 43,000  Level Jacksonville Center
02:19PM 30.2447 -87.4703 261° West 387 445 43,000  Level Jacksonville Center
02:20PM 30.2278 -87.5922 261° West 387 445 43,000  Level Jacksonville Center
02:21PM 30.2086 -87.7136 260° West 387 445 43,000  Level Jacksonville Center
02:23PM 30.1697 -88.0025 261° West 383 441 43,000  Level Houston Center
02:24PM 30.1517 -88.1233 260° West 382 440 43,000  Level Houston Center
02:25PM 30.1342 -88.2428 260° West 378 435 43,000  Level Houston Center
02:26PM 30.1175 -88.3636 261° West 380 437 43,000  Level Houston Center
02:27PM 30.0986 -88.4825 260° West 377 434 43,000  Level Houston Center
02:28PM 30.0808 -88.6017 260° West 377 434 43,000  Level Houston Center
02:29PM 30.0606 -88.7406 260° West 376 433 43,000  Level Houston Center
02:30PM 30.0431 -88.8594 260° West 376 433 43,000  Level Houston Center
02:31PM 30.0247 -88.9778 260° West 375 432 43,000  Level Houston Center
02:32PM 30.0069 -89.0964 260° West 375 432 43,000  Level Houston Center
02:33PM 29.9878 -89.2144 259° West 373 429 43,000  Level Houston Center
02:34PM 29.9656 -89.3564 260° West 373 429 43,000  Level Houston Center
02:35PM 29.9467 -89.4756 260° West 376 433 43,000  Level Houston Center
02:36PM 29.9292 -89.5944 260° West 374 430 43,000  Level Houston Center
02:37PM 29.9097 -89.7131 259° West 375 432 43,000  Level Houston Center
02:38PM 29.8908 -89.8322 260° West 376 433 43,000  Level Houston Center
02:39PM 29.8719 -89.9514 260° West 375 432 43,000  Level Houston Center
02:40PM 29.8536 -90.0697 260° West 376 433 43,000  Level Houston Center
02:41PM 29.8292 -90.2119 259° West 377 434 43,000  Level Houston Center
02:43PM 29.8103 -90.3292 260° West 374 430 43,000  Level Houston Center
02:44PM 29.7917 -90.4458 260° West 370 426 43,000  Level Houston Center
02:45PM 29.7725 -90.5611 259° West 367 422 43,000  Level Houston Center
02:46PM 29.7536 -90.6756 259° West 365 420 43,000 -480 Level Houston Center
02:47PM 29.7661 -90.7922 277° West 369 425 42,100 -1,200 Descending Houston Center
02:48PM 29.7878 -90.9236 281° West 346 398 40,600 -1,200 Descending Houston Center
02:49PM 29.8072 -91.0317 282° West 345 397 39,700 -960 Descending Houston Center
02:50PM 29.8256 -91.1450 281° West 359 413 38,700 -840 Descending Houston Center
02:51PM 29.8439 -91.2514 281° West 342 394 38,000 -360 Descending Houston Center
02:52PM 29.8619 -91.3592 281° West 342 394 38,000  Level Houston Center
02:53PM 29.8794 -91.4653 281° West 339 390 38,000  Level Houston Center
02:54PM 29.8997 -91.5922 280° West 337 388 38,000  Level Houston Center
02:55PM 29.9172 -91.6983 281° West 337 388 38,000  Level Houston Center
02:56PM 29.9344 -91.8025 281° West 339 390 38,000 -60 Level Houston Center
02:57PM 29.9508 -91.9089 280° West 337 388 37,900 -540 Descending Houston Center
02:58PM 29.9694 -92.0133 282° West 332 382 36,900 -1,020 Descending Houston Center
02:59PM 29.9850 -92.1181 280° West 330 380 35,900 -1,560 Descending Houston Center
03:00PM 30.0067 -92.2461 281° West 338 389 33,700 -2,040 Descending Houston Center
03:01PM 30.0236 -92.3561 280° West 348 400 31,700 -1,980 Descending Houston Center
03:02PM 30.0461 -92.4681 283° West 355 409 29,700 -1,800 Descending Houston Center
03:03PM 30.0608 -92.5836 278° West 362 417 28,000 -840 Descending Houston Center
03:04PM 30.0775 -92.6953 280° West 353 406 28,000 -780 Level Houston Center
03:05PM 30.0975 -92.8311 280° West 358 412 26,400 -1,560 Descending Houston Center
03:06PM 30.1175 -92.9511 281° West 375 432 24,800 -1,560 Descending Houston Center
03:07PM 30.1356 -93.0708 280° West 379 436 23,200 -2,040 Descending Houston Center
03:08PM 30.1436 -93.1867 275° West 364 419 20,700 -2,520 Descending Houston Center
03:09PM 30.1481 -93.3017 273° West 357 411 18,100 -2,520 Descending Houston Center
03:10PM 30.1511 -93.4153 272° West 353 406 15,500 -2,760 Descending Houston Center
03:11PM 30.1553 -93.5114 273° West 344 396 13,200 -2,520 Descending Houston Center
03:11PM 30.1561 -93.5275 273° West 347 399 12,900 -2,580 Descending Houston Center
03:12PM 30.1592 -93.6292 272° West 346 398 10,600 -2,820 Descending Houston Center
03:13PM 30.1597 -93.6611 271° West 342 394 10,000 -600 Descending Houston Center
03:13PM 30.1622 -93.7378 272° West 326 375 10,000  Level Houston Center
03:14PM 30.1642 -93.7650 275° West 326 375 10,000  Level Houston Center
03:14PM 30.1656 -93.8317 271° West 328 377 10,000  Level Houston Center
03:15PM 30.1667 -93.8728 272° West 333 383 10,000  Level Houston Center
03:15PM 30.1694 -93.9522 272° West 334 384 10,000  Level Houston Center
03:16PM 30.1700 -93.9786 271° West 332 382 10,000  Level Houston Center
03:16PM 30.1744 -94.0628 274° West 338 389 10,000  Level Houston Center
03:17PM 30.1744 -94.0872 270° West 339 390 10,000  Level Houston Center
03:17PM 30.1778 -94.1786 272° West 342 394 10,000  Level Houston Center
03:18PM 30.1764 -94.1972 265° West 341 392 10,000  Level Houston Center
03:18PM 30.1800 -94.2847 273° West 339 390 10,000  Level Houston Center
03:19PM 30.1800 -94.3064 270° West 340 391 10,000  Level Houston Center
03:20PM 30.1839 -94.4100 273° West 338 389 10,000  Level Houston Center
03:20PM 30.1833 -94.4356 269° West 337 388 10,000 -300 Level Houston Center
03:21PM 30.1883 -94.5206 274° West 339 390 9,700 -300 Descending Houston Center
03:21PM 30.1931 -94.5394 286° West 332 382 9,700 -1,500 Level Houston Center
03:22PM 30.2036 -94.6106 280° West 268 308 8,200 -1,800 Descending Houston Center
03:22PM 30.2069 -94.6256 284° West 282 325 7,900 -2,100 Descending Houston Center
03:23PM 30.2228 -94.7025 283° West 283 326 6,100 -1,860 Descending Houston Center
03:23PM 30.2244 -94.7142 279° West 281 323 6,000 -1,500 Descending Houston Center
03:24PM 30.2414 -94.7847 286° West 252 290 4,600 -1,500 Descending Houston Center
03:24PM 30.2436 -94.7942 285° West 263 303 4,500 -660 Descending Houston Center
03:25PM 30.2608 -94.8572 288° West 261 300 4,000 -420 Descending Houston Center
03:25PM 30.2692 -94.8894 287° West 256 295 4,100 -120 Climbing Houston Center
03:26PM 30.2808 -94.9369 286° West 266 306 3,900  Descending Houston Center
03:26PM 30.2892 -94.9714 286° West 263 303 4,100 60 Climbing Houston Center
03:27PM 30.3017 -95.0239 285° West 264 304 4,000  Descending Houston Center
03:27PM 30.3086 -95.0531 285° West 264 304 4,100 -420 Climbing Houston Center
03:28PM 30.3053 -95.1083 266° West 265 305 3,600 -780 Descending Houston Center
03:28PM 30.3014 -95.1342 260° West 263 303 3,300 -720 Descending Houston Center
03:29PM 30.2875 -95.1881 253° West 262 302 2,900 -300 Descending Houston Center
03:29PM 30.2833 -95.2139 259° West 261 300 3,000 60 Climbing Houston Center
03:30PM 30.2703 -95.2722 255° West 258 297 3,000 60 Level Houston Center
03:30PM 30.2617 -95.3114 256° West 261 300 3,100  Climbing Houston Center
03:31PM 30.2506 -95.3569 254° West 262 302 3,000 -420 Descending Houston Center
03:31PM 30.2408 -95.3897 251° West 260 299 2,700 -1,140 Descending Houston Center
03:32PM 30.2236 -95.4278 242° Southwest 228 262 1,900 -780 Descending Houston Center
03:32PM 30.2139 -95.4581 250° West 251 289 1,900 60 Level Houston Center
03:33PM 30.2017 -95.4886 245° Southwest 208 239 2,000  Climbing Houston Center
03:33PM 30.1925 -95.5161 249° West 227 261 1,900  Descending Houston Center
03:34PM 30.1797 -95.5467 244° Southwest 182 209 2,000 60 Climbing Houston Center
03:34PM 30.1678 -95.5614 227° Southwest 204 235 2,000 -420 Level Houston Center
03:35PM 30.1414 -95.5658 188° South 144 166 1,600 -720 Descending Houston Center
03:35PM 30.1292 -95.5636 171° South 166 191 1,300 -720 Descending Houston Center
03:36PM 30.1094 -95.5600 171° South 119 137 900 -600 Descending Houston Center
03:36PM 30.0947 -95.5581 173° South 138 159 700 -360 Descending Houston Center
03:38PM 30.0618 -95.5528 218° Southwest  Level Estimated